Time;durP1;ratioP1;P1;durP2;ratioP2;P2;SDS_P1;SDS_P2;PMS_P1;PMS_P2;Temp;Humidity;BMP_temperature;BMP_pressure;BME280_temperature;BME280_humidity;BME280_pressure;Samples;Min_cycle;Max_cycle;Signal;HPM_P1;HPM_P2
2021/01/04 00:02:36;;;;;;;7.90;3.90;;;;;;;5.39;94.95;101365.50;5027716;28;20479;-77
2021/01/04 00:05:04;;;;;;;9.85;4.00;;;;;;;5.35;95.22;101363.72;5030492;28;20037;-77
2021/01/04 00:07:33;;;;;;;11.88;4.32;;;;;;;5.24;95.83;101362.38;5019717;28;20033;-77
2021/01/04 00:10:20;;;;;;;10.27;3.60;;;;;;;5.23;95.79;101363.44;5046108;28;20041;-77
2021/01/04 00:12:56;;;;;;;11.27;4.68;;;;;;;5.21;95.60;101362.97;5024850;28;20468;-77
2021/01/04 00:15:39;;;;;;;10.40;4.10;;;;;;;5.25;95.89;101363.94;5006362;28;20064;-78
2021/01/04 00:18:42;;;;;;;11.00;3.95;;;;;;;5.27;95.66;101356.41;5013572;28;20270;-77
2021/01/04 00:21:36;;;;;;;11.23;4.30;;;;;;;5.05;95.77;101357.16;5007987;28;20124;-77
2021/01/04 00:24:22;;;;;;;10.75;4.28;;;;;;;5.20;96.30;101351.50;5032662;28;20040;-78
2021/01/04 00:27:11;;;;;;;10.18;4.20;;;;;;;5.05;96.47;101365.16;5023338;28;20044;-77
2021/01/04 00:29:36;;;;;;;8.35;3.72;;;;;;;5.10;97.05;101362.41;4986231;28;20107;-76
2021/01/04 00:32:12;;;;;;;11.10;3.92;;;;;;;5.03;97.15;101358.56;5025727;28;20041;-77
2021/01/04 00:34:43;;;;;;;7.57;3.70;;;;;;;5.25;96.84;101354.06;5050188;28;20090;-77
2021/01/04 00:37:35;;;;;;;9.07;4.10;;;;;;;5.15;96.89;101353.50;5033601;28;20038;-77
2021/01/04 00:40:25;;;;;;;9.20;3.60;;;;;;;5.04;97.47;101352.94;5028153;28;20117;-77
2021/01/04 00:42:51;;;;;;;11.05;3.60;;;;;;;4.97;96.76;101339.22;5023257;28;20067;-79
2021/01/04 00:45:24;;;;;;;7.10;3.60;;;;;;;5.11;96.98;101358.63;5019228;28;20045;-79
2021/01/04 00:48:22;;;;;;;8.73;3.60;;;;;;;5.20;96.85;101351.50;5014943;28;20033;-79
2021/01/04 00:50:54;;;;;;;7.15;3.63;;;;;;;5.01;97.00;101350.88;5025966;28;20441;-79
2021/01/04 00:53:39;;;;;;;8.68;3.63;;;;;;;5.16;96.87;101355.88;5034984;28;20482;-78
2021/01/04 00:56:19;;;;;;;9.48;3.10;;;;;;;5.17;96.01;101357.44;5033281;28;20036;-79
2021/01/04 00:59:27;;;;;;;8.50;3.50;;;;;;;5.01;96.41;101356.22;5018824;28;20047;-78
2021/01/04 01:02:28;;;;;;;6.70;3.33;;;;;;;5.28;95.99;101350.78;5045246;28;20330;-78
2021/01/04 01:05:07;;;;;;;6.53;3.22;;;;;;;5.37;95.70;101353.53;5035048;28;20036;-78
2021/01/04 01:07:57;;;;;;;13.38;3.00;;;;;;;5.24;96.09;101352.50;5034993;28;20037;-79
2021/01/04 01:10:26;;;;;;;7.32;3.20;;;;;;;5.33;95.39;101356.00;5031280;28;20120;-79
2021/01/04 01:12:57;;;;;;;9.43;3.45;;;;;;;5.25;95.87;101354.06;5014010;28;20029;-77
2021/01/04 01:15:35;;;;;;;5.45;2.63;;;;;;;5.18;95.66;101351.03;5030657;28;20065;-79
2021/01/04 01:18:28;;;;;;;10.05;2.70;;;;;;;5.43;95.23;101353.13;5048529;28;20108;-78
2021/01/04 01:20:56;;;;;;;6.07;2.97;;;;;;;5.29;94.68;101359.56;5011215;28;20159;-79
2021/01/04 01:23:26;;;;;;;6.63;3.28;;;;;;;5.33;94.93;101349.88;5034910;28;20446;-77
2021/01/04 01:26:04;;;;;;;7.65;2.65;;;;;;;5.24;95.32;101363.16;5007231;28;20501;-78
2021/01/04 01:28:32;;;;;;;6.65;3.13;;;;;;;5.32;94.99;101354.41;5018287;28;20029;-77
2021/01/04 01:31:15;;;;;;;9.63;3.00;;;;;;;5.41;94.24;101367.84;5008358;28;20037;-77
2021/01/04 01:34:14;;;;;;;9.07;3.20;;;;;;;5.24;94.04;101365.84;5021528;28;20516;-79
2021/01/04 01:36:58;;;;;;;4.47;2.60;;;;;;;5.21;94.48;101368.28;5019053;28;20039;-79
2021/01/04 01:40:01;;;;;;;6.03;2.60;;;;;;;5.29;94.60;101371.06;5029864;28;20052;-78
2021/01/04 01:42:47;;;;;;;8.27;2.80;;;;;;;5.10;94.67;101373.09;5022409;28;20067;-78
2021/01/04 01:45:22;;;;;;;5.18;2.40;;;;;;;5.06;94.94;101371.31;5023791;28;20394;-76
2021/01/04 01:48:06;;;;;;;8.10;2.45;;;;;;;5.20;94.38;101382.75;5031748;28;20028;-79
2021/01/04 01:50:43;;;;;;;7.78;3.22;;;;;;;5.17;94.32;101368.13;5018383;28;20048;-77
2021/01/04 01:53:25;;;;;;;6.82;2.60;;;;;;;5.13;94.08;101372.47;5019042;28;20033;-77
2021/01/04 01:56:23;;;;;;;5.07;2.63;;;;;;;5.10;94.30;101373.09;5015993;28;20479;-78
2021/01/04 01:58:50;;;;;;;6.82;2.55;;;;;;;5.15;94.41;101378.31;5018999;28;20077;-79
2021/01/04 02:01:26;;;;;;;8.85;2.35;;;;;;;5.24;93.61;101376.53;5031021;28;20500;-79
2021/01/04 02:04:00;;;;;;;5.88;2.72;;;;;;;5.28;93.38;101363.34;5028284;28;20091;-79
2021/01/04 02:06:52;;;;;;;6.50;2.40;;;;;;;5.37;93.10;101380.22;5022450;28;20040;-79
2021/01/04 02:09:26;;;;;;;5.97;2.40;;;;;;;5.35;93.25;101375.19;5021350;28;20083;-79
2021/01/04 02:12:10;;;;;;;4.85;2.50;;;;;;;5.22;93.28;101384.03;5029440;28;20428;-78
2021/01/04 02:14:44;;;;;;;4.50;2.28;;;;;;;5.27;93.55;101383.91;5033557;28;20047;-78
2021/01/04 02:17:25;;;;;;;6.78;3.22;;;;;;;5.28;93.27;101382.03;5014355;28;20038;-78
2021/01/04 02:20:12;;;;;;;4.63;2.30;;;;;;;5.38;93.15;101387.94;5042172;28;20041;-77
2021/01/04 02:22:54;;;;;;;4.72;2.30;;;;;;;5.30;92.64;101374.53;5035492;28;20037;-78
2021/01/04 02:25:19;;;;;;;5.07;2.33;;;;;;;5.21;92.71;101374.44;5038232;28;20037;-78
2021/01/04 02:27:50;;;;;;;4.65;2.63;;;;;;;5.26;92.74;101382.34;5021682;28;20024;-78
2021/01/04 02:30:16;;;;;;;3.70;2.03;;;;;;;5.21;92.57;101378.97;5017844;28;20080;-78
2021/01/04 02:32:43;;;;;;;7.82;2.20;;;;;;;5.09;92.58;101376.81;5034828;28;20033;-78
2021/01/04 02:35:30;;;;;;;3.03;1.98;;;;;;;5.10;92.57;101373.09;5015419;28;20029;-78
2021/01/04 02:37:56;;;;;;;4.35;2.22;;;;;;;5.13;92.53;101388.50;4942686;28;20550;-78
2021/01/04 02:40:21;;;;;;;3.78;1.88;;;;;;;5.09;92.69;101376.81;4926821;28;20047;-78
2021/01/04 02:42:49;;;;;;;4.65;1.90;;;;;;;5.22;92.63;101385.91;4954353;28;20122;-76
2021/01/04 02:45:19;;;;;;;5.85;1.92;;;;;;;5.22;91.94;101381.38;4939863;28;20049;-77
2021/01/04 02:47:57;;;;;;;5.88;2.08;;;;;;;4.91;92.73;101380.44;4958535;28;20039;-78
2021/01/04 02:50:47;;;;;;;3.08;1.50;;;;;;;5.11;92.96;101377.31;4957916;28;20122;-78
2021/01/04 02:53:40;;;;;;;2.88;1.60;;;;;;;4.99;94.18;101382.41;4956946;28;20077;-78
2021/01/04 02:56:31;;;;;;;3.20;2.03;;;;;;;5.10;94.46;101372.28;4931643;28;20423;-77
2021/01/04 02:59:03;;;;;;;5.68;1.67;;;;;;;5.18;94.16;101377.72;4959365;28;20038;-78
2021/01/04 03:01:46;;;;;;;2.92;1.67;;;;;;;5.20;94.33;101372.88;4955635;28;20435;-76
2021/01/04 03:04:15;;;;;;;6.38;1.80;;;;;;;5.13;95.39;101371.69;4938171;29;20587;-77
2021/01/04 03:06:48;;;;;;;5.15;1.70;;;;;;;5.08;96.27;101361.13;4936406;28;20031;-77
2021/01/04 03:09:14;;;;;;;4.93;1.60;;;;;;;4.99;97.48;101368.25;4952522;29;20124;-78
2021/01/04 03:11:42;;;;;;;2.65;1.45;;;;;;;5.10;96.81;101373.09;4939653;28;20115;-78
2021/01/04 03:14:34;;;;;;;3.33;1.60;;;;;;;5.09;97.32;101371.50;4969294;28;20049;-78
2021/01/04 03:17:19;;;;;;;3.88;1.55;;;;;;;4.96;97.67;101364.31;5031523;28;20033;-78
2021/01/04 03:19:48;;;;;;;4.32;1.33;;;;;;;4.97;97.40;101376.56;5036000;28;20395;-78
2021/01/04 03:22:16;;;;;;;2.05;1.60;;;;;;;4.91;97.57;101374.31;5021936;28;20029;-78
2021/01/04 03:24:49;;;;;;;5.68;1.63;;;;;;;5.01;97.65;101377.56;5025925;28;20604;-77
2021/01/04 03:27:21;;;;;;;5.07;1.63;;;;;;;4.84;98.65;101380.03;5013795;28;20060;-75
2021/01/04 03:29:46;;;;;;;3.25;1.58;;;;;;;4.91;98.08;101375.09;5015099;28;20475;-78
2021/01/04 03:32:12;;;;;;;1.80;1.20;;;;;;;4.71;98.36;101372.84;5034226;28;20040;-78
2021/01/04 03:34:37;;;;;;;2.63;1.27;;;;;;;4.83;98.58;101362.47;5037993;28;20024;-77
2021/01/04 03:37:03;;;;;;;8.18;1.35;;;;;;;4.68;98.94;101365.44;5023310;28;20047;-78
2021/01/04 03:39:28;;;;;;;1.95;1.35;;;;;;;4.79;98.79;101360.66;5030466;28;20095;-78
2021/01/04 03:41:56;;;;;;;3.38;1.38;;;;;;;4.79;98.47;101361.47;5020578;28;20108;-78
2021/01/04 03:44:22;;;;;;;2.13;1.25;;;;;;;4.90;97.73;101370.84;5034367;28;20060;-78
2021/01/04 03:46:47;;;;;;;4.55;1.38;;;;;;;4.79;97.41;101361.47;5035052;28;20037;-77
2021/01/04 03:49:13;;;;;;;1.98;1.23;;;;;;;4.95;97.13;101357.41;5016353;28;20025;-78
2021/01/04 03:51:38;;;;;;;2.78;1.40;;;;;;;5.09;96.11;101362.72;5052616;28;20056;-78
2021/01/04 03:54:04;;;;;;;5.13;1.45;;;;;;;5.01;95.90;101363.41;5033440;28;20404;-77
2021/01/04 03:56:30;;;;;;;5.22;1.25;;;;;;;4.86;96.02;101359.19;5028357;28;20540;-76
2021/01/04 03:58:55;;;;;;;3.78;1.48;;;;;;;4.89;96.13;101358.59;5052748;28;20079;-78
2021/01/04 04:01:21;;;;;;;5.75;1.20;;;;;;;4.82;95.91;101360.84;5034763;28;20045;-78
2021/01/04 04:03:46;;;;;;;2.90;1.15;;;;;;;4.77;96.45;101363.66;5013690;28;20017;-77
2021/01/04 04:06:13;;;;;;;2.78;1.05;;;;;;;4.79;97.23;101361.47;5018919;28;20037;-78
2021/01/04 04:08:42;;;;;;;6.30;2.17;;;;;;;4.96;96.17;101366.19;5032891;28;20404;-76
2021/01/04 04:11:08;;;;;;;2.53;1.20;;;;;;;5.00;96.15;101357.28;5033154;28;20040;-78
2021/01/04 04:13:34;;;;;;;4.53;1.30;;;;;;;5.10;96.14;101361.63;5033210;28;20044;-77
2021/01/04 04:16:00;;;;;;;1.92;1.20;;;;;;;5.19;95.16;101365.94;5019271;28;20438;-78
2021/01/04 04:18:27;;;;;;;2.67;0.98;;;;;;;5.13;95.68;101369.81;5012723;28;20265;-77
2021/01/04 04:20:53;;;;;;;2.80;1.23;;;;;;;5.03;96.20;101367.34;5010857;28;20044;-77
2021/01/04 04:23:18;;;;;;;2.63;1.25;;;;;;;5.04;96.83;101366.28;5016701;28;20497;-77
2021/01/04 04:25:44;;;;;;;1.55;0.95;;;;;;;5.00;97.05;101357.28;5033033;28;20102;-78
2021/01/04 04:28:10;;;;;;;1.75;1.10;;;;;;;5.16;96.76;101371.09;5033563;28;20021;-78
2021/01/04 04:30:35;;;;;;;2.33;0.98;;;;;;;5.16;97.43;101371.88;5034447;28;20108;-78
2021/01/04 04:33:01;;;;;;;5.25;1.10;;;;;;;5.05;97.14;101370.50;5027013;28;20027;-79
2021/01/04 04:35:29;;;;;;;2.05;0.77;;;;;;;4.89;98.32;101366.59;5033695;28;20504;-78
2021/01/04 04:37:55;;;;;;;2.90;1.00;;;;;;;5.11;98.49;101369.31;5045071;28;20043;-78
2021/01/04 04:40:26;;;;;;;4.32;1.20;;;;;;;5.03;98.21;101371.91;5019362;28;20056;-78
2021/01/04 04:43:11;;;;;;;3.58;0.98;;;;;;;4.96;99.45;101361.63;5014337;28;20447;-79
2021/01/04 04:45:38;;;;;;;2.65;1.10;;;;;;;4.95;99.16;101376.09;5030717;28;20429;-77
2021/01/04 04:48:41;;;;;;;1.77;0.77;;;;;;;5.11;98.05;101365.88;5012001;28;20021;-79
2021/01/04 04:51:20;;;;;;;3.15;0.90;;;;;;;5.05;99.15;101367.06;5032625;28;20079;-78
2021/01/04 04:54:19;;;;;;;3.25;1.08;;;;;;;5.24;98.00;101365.84;5051044;28;20067;-79
2021/01/04 04:57:03;;;;;;;2.13;0.93;;;;;;;5.19;98.23;101370.47;5021522;28;20041;-77
2021/01/04 05:00:05;;;;;;;3.30;0.90;;;;;;;5.02;98.24;101363.13;5042521;28;20078;-79
2021/01/04 05:02:40;;;;;;;2.72;0.70;;;;;;;4.94;99.41;101373.69;5016583;28;20044;-78
2021/01/04 05:05:12;;;;;;;0.88;0.80;;;;;;;5.04;98.72;101373.47;5027527;28;20045;-79
2021/01/04 05:08:01;;;;;;;1.77;1.02;;;;;;;5.09;98.81;101371.50;5019511;28;20039;-79
2021/01/04 05:10:32;;;;;;;1.60;0.77;;;;;;;5.06;98.78;101374.78;5044411;28;20037;-78
2021/01/04 05:13:00;;;;;;;3.13;0.80;;;;;;;5.01;98.58;101361.53;5046895;28;20078;-79
2021/01/04 05:15:44;;;;;;;2.45;0.80;;;;;;;5.11;98.66;101373.88;5013762;28;20037;-78
2021/01/04 05:18:45;;;;;;;2.95;0.90;;;;;;;5.32;97.53;101372.34;5017060;28;20037;-78
2021/01/04 05:21:23;;;;;;;;;;;;;;;5.22;97.18;101376.03;5015343;28;20056;-77
2021/01/04 05:24:14;;;;;;;2.72;1.10;;;;;;;5.14;97.63;101384.75;5026625;28;20513;-78
2021/01/04 05:27:19;;;;;;;1.50;0.90;;;;;;;5.23;98.10;101374.94;5022318;28;20390;-79
2021/01/04 05:30:21;;;;;;;1.70;0.70;;;;;;;5.25;97.73;101382.63;5016943;28;20045;-79
2021/01/04 05:33:24;;;;;;;1.10;0.70;;;;;;;5.15;98.23;101380.19;5007754;28;20029;-79
2021/01/04 05:35:56;;;;;;;1.90;0.88;;;;;;;5.08;98.42;101375.25;5040124;28;20124;-79
2021/01/04 05:38:37;;;;;;;1.85;0.80;;;;;;;5.04;98.34;101384.97;5023590;28;20037;-79
2021/01/04 05:41:10;;;;;;;3.60;0.90;;;;;;;4.86;98.68;101379.75;5016313;28;20025;-79
2021/01/04 05:43:54;;;;;;;3.58;0.90;;;;;;;4.94;97.77;101385.16;5011728;28;20091;-79
2021/01/04 05:46:25;;;;;;;1.58;0.70;;;;;;;4.97;98.68;101379.25;5027090;28;20033;-78
2021/01/04 05:49:21;;;;;;;3.35;0.90;;;;;;;4.86;99.73;101383.19;5006894;28;20032;-77
2021/01/04 05:51:49;;;;;;;5.40;0.85;;;;;;;4.94;99.45;101384.38;5047584;28;20025;-78
2021/01/04 05:54:27;;;;;;;1.33;0.60;;;;;;;4.96;99.82;101387.53;5021289;28;20033;-79
2021/01/04 05:57:15;;;;;;;2.35;1.00;;;;;;;4.97;99.70;101384.59;5026758;28;20029;-79
2021/01/04 05:59:56;;;;;;;2.63;0.95;;;;;;;4.99;99.67;101385.06;5021272;28;20037;-77
2021/01/04 06:02:34;;;;;;;2.88;1.20;;;;;;;4.96;99.51;101388.31;5009340;28;20040;-79
2021/01/04 06:05:09;;;;;;;2.72;0.90;;;;;;;5.02;99.90;101391.66;5034873;28;20039;-77
2021/01/04 06:07:39;;;;;;;2.83;0.98;;;;;;;4.80;100.00;101397.72;5017241;28;20037;-79
2021/01/04 06:10:07;;;;;;;3.88;0.75;;;;;;;4.97;100.00;101386.44;5019303;28;20029;-78
2021/01/04 06:12:37;;;;;;;4.15;1.02;;;;;;;5.13;99.88;101391.16;5017119;28;20034;-79
2021/01/04 06:15:04;;;;;;;2.42;0.80;;;;;;;5.04;100.00;101392.16;5046902;28;20141;-79
2021/01/04 06:17:36;;;;;;;3.88;0.82;;;;;;;5.17;100.00;101384.13;5029164;28;20559;-77
2021/01/04 06:20:45;;;;;;;2.05;0.82;;;;;;;5.22;99.85;101392.03;5013171;28;20042;-78
2021/01/04 06:23:11;;;;;;;0.75;0.75;;;;;;;4.99;100.00;101387.75;4978088;28;20090;-79
2021/01/04 06:25:37;;;;;;;3.03;1.00;;;;;;;5.04;100.00;101392.97;5030668;28;20029;-79
2021/01/04 06:28:05;;;;;;;4.63;0.98;;;;;;;4.93;100.00;101390.81;5011309;28;20041;-78
2021/01/04 06:30:34;;;;;;;1.58;0.82;;;;;;;5.10;100.00;101388.31;5022853;28;20031;-78
2021/01/04 06:33:19;;;;;;;2.20;0.82;;;;;;;4.89;100.00;101389.81;5028608;28;20111;-77
2021/01/04 06:35:45;;;;;;;3.20;0.90;;;;;;;4.99;100.00;101394.94;5039921;28;20036;-78
2021/01/04 06:38:43;;;;;;;2.20;0.82;;;;;;;4.90;100.00;101388.72;5040619;28;20045;-78
2021/01/04 06:41:17;;;;;;;2.75;0.77;;;;;;;5.03;100.00;101399.38;5011077;28;20074;-78
2021/01/04 06:43:44;;;;;;;2.50;0.98;;;;;;;4.99;100.00;101392.28;5045720;28;20043;-78
2021/01/04 06:46:28;;;;;;;3.40;0.90;;;;;;;4.72;100.00;101384.31;5032498;28;20041;-77
2021/01/04 06:49:26;;;;;;;5.43;1.02;;;;;;;4.97;100.00;101389.91;5043786;28;20453;-80
2021/01/04 06:52:21;;;;;;;2.58;0.90;;;;;;;5.09;100.00;101392.84;5031672;28;20126;-78
2021/01/04 06:55:12;;;;;;;2.50;0.90;;;;;;;5.05;100.00;101405.19;5011962;28;20153;-77
2021/01/04 06:57:52;;;;;;;2.92;0.82;;;;;;;4.99;100.00;101389.63;5009721;28;20078;-78
2021/01/04 07:00:18;;;;;;;4.20;0.90;;;;;;;4.98;100.00;101407.50;5015565;28;20128;-78
2021/01/04 07:03:02;;;;;;;4.38;1.08;;;;;;;5.08;100.00;101403.81;5011669;28;20120;-78
2021/01/04 07:05:59;;;;;;;5.72;1.00;;;;;;;5.02;100.00;101397.81;5003667;28;20045;-77
2021/01/04 07:08:59;;;;;;;4.03;1.27;;;;;;;5.09;100.00;101403.50;5025367;28;20509;-77
2021/01/04 07:11:43;;;;;;;3.15;1.00;;;;;;;5.04;100.00;101406.31;4958245;28;20050;-78
2021/01/04 07:14:17;;;;;;;2.88;1.10;;;;;;;5.05;100.00;101402.53;4965250;28;20047;-77
2021/01/04 07:17:03;;;;;;;5.78;1.23;;;;;;;4.98;100.00;101418.16;4968464;28;20046;-77
2021/01/04 07:19:59;;;;;;;4.80;1.17;;;;;;;4.97;100.00;101413.13;4933609;28;20035;-77
2021/01/04 07:22:53;;;;;;;4.53;1.08;;;;;;;4.77;100.00;101416.19;4933343;28;20051;-77
2021/01/04 07:26:09;;;;;;;4.72;1.10;;;;;;;4.80;100.00;101415.63;4867958;28;20515;-76
2021/01/04 07:28:37;;;;;;;3.55;1.13;;;;;;;4.81;100.00;101419.84;4907480;29;20080;-77
2021/01/04 07:31:08;;;;;;;2.50;1.30;;;;;;;5.01;100.00;101422.13;4922449;28;20042;-77
2021/01/04 07:33:53;;;;;;;1.50;0.98;;;;;;;5.05;100.00;101434.56;4946697;28;20499;-77
2021/01/04 07:36:45;;;;;;;4.65;1.20;;;;;;;5.15;100.00;101423.69;4951404;28;20046;-77
2021/01/04 07:39:25;;;;;;;1.50;1.15;;;;;;;5.16;100.00;101438.63;4953956;28;20081;-76
2021/01/04 07:42:25;;;;;;;5.32;1.42;;;;;;;5.10;100.00;101426.47;4966977;28;20098;-76
2021/01/04 07:45:08;;;;;;;2.58;1.05;;;;;;;4.97;100.00;101432.63;4946191;28;20050;-78
2021/01/04 07:48:12;;;;;;;3.72;1.30;;;;;;;4.98;100.00;101428.84;4978761;28;20030;-76
2021/01/04 07:51:22;;;;;;;2.90;1.10;;;;;;;5.18;100.00;101432.97;5006771;28;20127;-76
2021/01/04 07:53:57;;;;;;;3.30;1.30;;;;;;;4.96;100.00;101431.03;4997546;28;20041;-77
2021/01/04 07:56:22;;;;;;;3.88;1.48;;;;;;;5.00;100.00;101426.66;5026303;28;20124;-76
2021/01/04 07:59:19;;;;;;;2.42;1.58;;;;;;;5.02;100.00;101434.38;5008800;28;20116;-76
2021/01/04 08:02:10;;;;;;;3.00;1.23;;;;;;;5.07;100.00;101437.72;5025807;28;20036;-77
2021/01/04 08:05:01;;;;;;;2.78;1.27;;;;;;;4.86;100.00;101433.88;5039091;28;20466;-76
2021/01/04 08:07:38;;;;;;;2.70;1.27;;;;;;;4.93;100.00;101431.63;5020475;28;20485;-76
2021/01/04 08:10:04;;;;;;;4.32;1.90;;;;;;;4.56;100.00;101427.28;5026955;28;20029;-76
2021/01/04 08:12:59;;;;;;;2.85;1.25;;;;;;;4.77;100.00;101437.53;5041159;28;20040;-76
2021/01/04 08:15:31;;;;;;;2.53;1.33;;;;;;;4.88;100.00;101439.72;5010765;28;20052;-75
2021/01/04 08:18:08;;;;;;;3.10;1.63;;;;;;;4.85;100.00;101440.31;5036628;28;20152;-76
2021/01/04 08:20:36;;;;;;;3.50;1.48;;;;;;;4.73;100.00;101440.00;5040114;28;20081;-76
2021/01/04 08:23:34;;;;;;;2.95;1.30;;;;;;;4.80;100.00;101447.63;5015535;28;20036;-76
2021/01/04 08:26:44;;;;;;;1.77;1.55;;;;;;;4.77;100.00;101437.53;5018261;28;20056;-76
2021/01/04 08:29:21;;;;;;;1.65;1.30;;;;;;;4.79;100.00;101444.16;4944006;28;20719;-76
2021/01/04 08:31:58;;;;;;;3.78;1.60;;;;;;;4.77;100.00;101453.53;5000634;28;20076;-76
2021/01/04 08:34:24;;;;;;;3.72;1.45;;;;;;;4.60;100.00;101451.47;5006693;28;20108;-76
2021/01/04 08:36:55;;;;;;;2.45;1.40;;;;;;;4.73;100.00;101440.00;5012485;28;20580;-76
2021/01/04 08:39:21;;;;;;;1.77;1.50;;;;;;;4.78;100.00;101442.56;5005442;28;20410;-76
2021/01/04 08:42:14;;;;;;;2.75;1.55;;;;;;;4.72;100.00;101451.78;5028192;28;20048;-77
2021/01/04 08:44:54;;;;;;;2.30;1.63;;;;;;;4.76;100.00;101458.09;5007116;28;20025;-77
2021/01/04 08:47:29;;;;;;;4.97;1.77;;;;;;;4.69;100.00;101449.69;5009114;28;20044;-76
2021/01/04 08:50:27;;;;;;;3.50;1.52;;;;;;;4.72;100.00;101451.78;5023704;28;20044;-76
2021/01/04 08:53:09;;;;;;;2.67;1.70;;;;;;;4.66;100.00;101442.28;5022223;28;20104;-77
2021/01/04 08:55:35;;;;;;;;;;;;;;;4.70;100.00;101451.28;5020550;28;20424;-76
2021/01/04 08:58:27;;;;;;;2.15;1.70;;;;;;;4.71;100.00;101452.84;5015652;28;19970;-76
2021/01/04 09:01:01;;;;;;;2.90;1.70;;;;;;;4.59;100.00;101450.66;5017198;28;20033;-76
2021/01/04 09:03:30;;;;;;;4.85;1.77;;;;;;;4.71;100.00;101449.38;5037935;28;20041;-76
2021/01/04 09:05:57;;;;;;;4.30;1.83;;;;;;;4.57;100.00;101447.50;5042297;28;20033;-76
2021/01/04 09:08:32;;;;;;;4.05;2.00;;;;;;;4.61;100.00;101450.38;5023996;28;20043;-76
2021/01/04 09:11:03;;;;;;;3.97;2.00;;;;;;;4.58;100.00;101453.63;5021447;28;20064;-77
2021/01/04 09:13:38;;;;;;;3.15;2.00;;;;;;;4.59;100.00;101457.88;5033951;28;20044;-76
2021/01/04 09:16:10;;;;;;;4.30;2.60;;;;;;;4.55;100.00;101456.88;5033815;28;20390;-76
2021/01/04 09:18:38;;;;;;;2.42;2.08;;;;;;;4.63;100.00;101458.88;5026924;28;20042;-76
2021/01/04 09:21:41;;;;;;;4.50;2.67;;;;;;;4.52;100.00;101447.59;5031302;28;20044;-77
2021/01/04 09:24:22;;;;;;;3.97;2.22;;;;;;;4.60;100.00;101446.13;5027277;28;20726;-76
2021/01/04 09:26:51;;;;;;;2.65;2.00;;;;;;;4.52;100.00;101449.47;5030431;28;20060;-76
2021/01/04 09:29:23;;;;;;;5.25;2.40;;;;;;;4.51;100.00;101447.88;5022925;28;20059;-76
2021/01/04 09:31:50;;;;;;;7.32;2.53;;;;;;;4.53;100.00;101453.72;5030198;28;20083;-76
2021/01/04 09:34:18;;;;;;;6.63;2.85;;;;;;;4.50;100.00;101457.78;5023668;28;20041;-76
2021/01/04 09:36:43;;;;;;;6.05;2.88;;;;;;;4.44;100.00;101450.16;5011422;28;20065;-76
2021/01/04 09:39:13;;;;;;;4.30;2.60;;;;;;;4.50;100.00;101455.13;5040555;28;20069;-76
2021/01/04 09:41:40;;;;;;;4.93;2.58;;;;;;;4.66;100.00;101460.97;5028055;28;20021;-76
2021/01/04 09:44:11;;;;;;;3.97;2.50;;;;;;;4.57;100.00;101460.84;5010306;28;20037;-76
2021/01/04 09:46:43;;;;;;;4.28;2.55;;;;;;;4.57;100.00;101455.50;5025652;28;20039;-76
2021/01/04 09:49:33;;;;;;;4.43;2.35;;;;;;;4.55;100.00;101462.22;5013198;28;20087;-76
2021/01/04 09:52:02;;;;;;;5.55;2.38;;;;;;;4.45;100.00;101462.41;5024601;28;20084;-76
2021/01/04 09:54:35;;;;;;;3.38;2.42;;;;;;;4.37;100.00;101450.56;5014530;28;20091;-75
2021/01/04 09:57:22;;;;;;;2.63;2.00;;;;;;;4.34;100.00;101450.31;5009948;28;20049;-76
2021/01/04 09:59:49;;;;;;;3.95;2.28;;;;;;;4.50;100.00;101452.44;4961227;28;20085;-76
2021/01/04 10:02:28;;;;;;;3.95;2.38;;;;;;;4.54;100.00;101449.97;4965139;28;20098;-75
2021/01/04 10:05:06;;;;;;;5.97;2.28;;;;;;;4.51;100.00;101445.22;4946475;28;20125;-76
2021/01/04 10:07:34;;;;;;;4.30;2.33;;;;;;;4.53;100.00;101451.03;4936478;28;20133;-76
2021/01/04 10:09:59;;;;;;;3.42;2.15;;;;;;;4.51;100.00;101451.34;4962979;28;20073;-75
2021/01/04 10:12:28;;;;;;;3.92;2.20;;;;;;;4.49;100.00;101444.75;4966797;28;20759;-76
2021/01/04 10:14:56;;;;;;;2.80;2.40;;;;;;;4.44;100.00;101450.94;4964795;28;20037;-75
2021/01/04 10:17:28;;;;;;;3.75;2.20;;;;;;;4.46;100.00;101446.13;4966406;28;20058;-75
2021/01/04 10:20:00;;;;;;;3.67;2.13;;;;;;;4.42;100.00;101447.78;4968704;28;20455;-76
2021/01/04 10:22:37;;;;;;;4.47;2.55;;;;;;;4.45;100.00;101441.84;4950574;28;20035;-75
2021/01/04 10:25:42;;;;;;;4.18;2.80;;;;;;;4.31;100.00;101445.59;4953500;28;20042;-76
2021/01/04 10:28:09;;;;;;;5.80;2.40;;;;;;;4.23;100.00;101436.41;4932348;28;20563;-76
2021/01/04 10:30:34;;;;;;;3.85;2.72;;;;;;;4.36;100.00;101432.16;4947857;28;20047;-77
2021/01/04 10:33:21;;;;;;;4.93;2.75;;;;;;;4.46;100.00;101432.00;4968212;28;20050;-76
2021/01/04 10:35:57;;;;;;;3.72;2.35;;;;;;;4.50;100.00;101428.44;4971396;28;20033;-76
2021/01/04 10:38:26;;;;;;;3.10;2.13;;;;;;;4.38;100.00;101438.00;5042773;28;20493;-76
2021/01/04 10:40:52;;;;;;;5.47;2.35;;;;;;;4.45;100.00;101427.75;5020055;28;20028;-76
2021/01/04 10:43:27;;;;;;;3.33;2.13;;;;;;;4.64;100.00;101412.47;5024438;28;20079;-76
2021/01/04 10:45:52;;;;;;;4.85;2.10;;;;;;;4.52;100.00;101420.94;5013153;28;20037;-76
2021/01/04 10:48:24;;;;;;;5.22;2.20;;;;;;;4.64;100.00;101420.47;5022579;28;20743;-75
2021/01/04 10:50:52;;;;;;;2.90;2.28;;;;;;;4.65;100.00;101419.34;5000492;28;20090;-77
2021/01/04 10:53:38;;;;;;;4.85;2.30;;;;;;;4.72;100.00;101422.44;5023997;28;20120;-77
2021/01/04 10:56:16;;;;;;;3.22;2.35;;;;;;;4.75;100.00;101413.84;5013298;28;20036;-76
2021/01/04 10:58:48;;;;;;;4.80;2.20;;;;;;;4.62;100.00;101406.63;5042114;28;20060;-77
2021/01/04 11:01:18;;;;;;;4.00;2.53;;;;;;;4.64;100.00;101406.31;5028131;28;20032;-77
2021/01/04 11:03:56;;;;;;;4.60;2.60;;;;;;;4.64;100.00;101417.78;5021988;28;20109;-75
2021/01/04 11:06:23;;;;;;;5.65;2.67;;;;;;;4.65;100.00;101406.03;5026864;28;20075;-76
2021/01/04 11:08:50;;;;;;;5.32;2.40;;;;;;;4.70;100.00;101413.16;5023145;28;20021;-76
2021/01/04 11:11:37;;;;;;;6.15;2.33;;;;;;;4.73;100.00;101402.66;5041434;28;20061;-77
2021/01/04 11:14:15;;;;;;;5.00;2.40;;;;;;;4.60;100.00;101398.13;5015967;28;20056;-76
2021/01/04 11:16:52;;;;;;;5.75;2.60;;;;;;;4.64;100.00;101403.66;5022072;28;20029;-76
2021/01/04 11:19:29;;;;;;;4.20;2.33;;;;;;;4.65;100.00;101398.03;5043317;28;20036;-76
2021/01/04 11:21:55;;;;;;;3.50;2.22;;;;;;;4.73;100.00;101400.00;5046876;28;20124;-76
2021/01/04 11:24:20;;;;;;;6.57;2.67;;;;;;;4.75;100.00;101394.38;5011592;28;20040;-76
2021/01/04 11:26:47;;;;;;;6.15;2.58;;;;;;;4.78;100.00;101389.22;5011532;28;20124;-76
2021/01/04 11:29:17;;;;;;;6.53;2.45;;;;;;;4.76;100.00;101388.75;5027087;28;20059;-76
2021/01/04 11:31:42;;;;;;;7.85;2.60;;;;;;;4.71;100.00;101385.38;5039670;28;20112;-76
2021/01/04 11:34:08;;;;;;;5.15;2.42;;;;;;;4.78;100.00;101377.78;5024921;28;20707;-76
2021/01/04 11:36:34;;;;;;;6.18;2.50;;;;;;;4.83;100.00;101373.13;5024512;28;20029;-77
2021/01/04 11:38:59;;;;;;;4.82;2.20;;;;;;;4.81;100.00;101375.31;5022413;28;20028;-77
2021/01/04 11:41:25;;;;;;;8.40;2.80;;;;;;;4.84;100.00;101365.91;5019317;28;20092;-76
2021/01/04 11:43:51;;;;;;;5.20;2.75;;;;;;;4.80;100.00;101368.38;5015010;28;20029;-75
2021/01/04 11:46:18;;;;;;;6.47;2.45;;;;;;;4.88;100.00;101359.66;5005966;28;21363;-77
2021/01/04 11:48:45;;;;;;;4.75;2.03;;;;;;;4.97;100.00;101357.09;5039174;28;20056;-75
2021/01/04 11:51:19;;;;;;;5.35;1.80;;;;;;;5.05;100.00;101356.41;5006765;28;20600;-76
2021/01/04 11:53:49;;;;;;;4.85;2.00;;;;;;;5.07;100.00;101363.00;5022898;28;20501;-76
2021/01/04 11:56:19;;;;;;;5.70;2.65;;;;;;;5.05;100.00;101361.72;5037962;28;20044;-76
2021/01/04 11:58:46;;;;;;;3.85;2.67;;;;;;;5.00;100.00;101357.28;5005892;28;20717;-77
2021/01/04 12:01:16;;;;;;;6.18;2.45;;;;;;;5.05;100.00;101362.50;5046971;28;20017;-79
2021/01/04 12:03:42;;;;;;;4.78;2.20;;;;;;;5.06;100.00;101356.09;5018891;28;20108;-76
2021/01/04 12:06:11;;;;;;;4.32;1.90;;;;;;;5.11;100.00;101358.63;5022713;28;20033;-76
2021/01/04 12:08:38;;;;;;;5.95;2.00;;;;;;;5.12;100.00;101368.25;5041230;28;20121;-75
2021/01/04 12:11:03;;;;;;;5.32;1.92;;;;;;;5.08;100.00;101353.91;5009544;28;20033;-77
2021/01/04 12:13:29;;;;;;;2.40;1.50;;;;;;;5.22;100.00;101349.34;5046258;28;20033;-77
2021/01/04 12:15:54;;;;;;;4.57;1.67;;;;;;;5.19;100.00;101352.59;5034463;28;20037;-76